createdAt,value
2018-04-19T00:02:05.101Z,13.00
2018-04-19T00:04:35.893Z,12.90
2018-04-19T00:07:06.053Z,12.90
2018-04-19T00:09:36.293Z,12.80
2018-04-19T00:12:06.493Z,12.80
2018-04-19T00:14:36.727Z,12.70
2018-04-19T00:17:06.845Z,12.70
2018-04-19T00:19:37.023Z,12.70
2018-04-19T00:22:07.180Z,12.70
2018-04-19T00:24:37.510Z,12.60
2018-04-19T00:27:08.557Z,12.60
2018-04-19T00:29:39.429Z,12.60
2018-04-19T00:32:10.323Z,12.50
2018-04-19T00:34:42.010Z,12.50
2018-04-19T00:37:13.261Z,12.40
2018-04-19T00:39:44.481Z,12.40
2018-04-19T00:42:16.467Z,12.40
2018-04-19T00:44:49.906Z,12.40
2018-04-19T00:47:20.375Z,12.40
2018-04-19T00:49:51.619Z,12.40
2018-04-19T00:52:24.162Z,12.30
2018-04-19T00:54:55.419Z,12.30
2018-04-19T00:57:25.623Z,12.30
2018-04-19T00:59:55.801Z,12.30
2018-04-19T01:02:26.009Z,12.30
2018-04-19T01:04:55.778Z,12.20
2018-04-19T01:07:25.639Z,12.20
2018-04-19T01:09:55.395Z,12.10
2018-04-19T01:12:25.560Z,12.10
2018-04-19T01:14:55.881Z,12.00
2018-04-19T01:17:26.703Z,12.00
2018-04-19T01:19:56.850Z,11.90
2018-04-19T01:22:26.981Z,11.90
2018-04-19T01:24:57.805Z,11.80
2018-04-19T01:27:28.092Z,11.80
2018-04-19T01:29:58.631Z,11.80
2018-04-19T01:32:28.887Z,11.70
2018-04-19T01:34:59.416Z,11.70
2018-04-19T01:37:29.194Z,11.70
2018-04-19T01:39:59.456Z,11.60
2018-04-19T01:42:29.585Z,11.60
2018-04-19T01:44:59.866Z,11.60
2018-04-19T01:47:30.692Z,11.50
2018-04-19T01:50:00.812Z,11.50
2018-04-19T01:52:30.968Z,11.50
2018-04-19T01:55:01.191Z,11.40
2018-04-19T01:57:31.312Z,11.40
2018-04-19T02:00:01.642Z,11.40
2018-04-19T02:02:31.810Z,11.30
2018-04-19T02:05:01.601Z,11.20
2018-04-19T02:07:31.792Z,11.20
2018-04-19T02:10:02.170Z,11.20
2018-04-19T02:12:32.360Z,11.10
2018-04-19T02:15:04.471Z,11.10
2018-04-19T02:17:34.624Z,11.10
2018-04-19T02:20:06.262Z,11.10
2018-04-19T02:22:37.134Z,11.00
2018-04-19T02:25:09.113Z,10.90
2018-04-19T02:27:41.217Z,10.90
2018-04-19T02:30:12.565Z,10.90
2018-04-19T02:32:42.725Z,10.90
2018-04-19T02:35:14.171Z,10.80
2018-04-19T02:37:44.295Z,10.80
2018-04-19T02:40:14.621Z,10.80
2018-04-19T02:42:44.742Z,10.70
2018-04-19T02:45:14.754Z,10.70
2018-04-19T02:47:46.464Z,10.70
2018-04-19T02:50:17.352Z,10.70
2018-04-19T02:52:47.119Z,10.50
2018-04-19T02:55:16.838Z,10.60
2018-04-19T02:57:46.983Z,10.60
2018-04-19T03:00:17.562Z,10.50
2018-04-19T03:02:47.842Z,10.50
2018-04-19T03:05:18.079Z,10.50
2018-04-19T03:07:48.914Z,10.50
2018-04-19T03:10:19.464Z,10.50
2018-04-19T03:12:49.855Z,10.40
2018-04-19T03:15:20.191Z,10.40
2018-04-19T03:17:50.368Z,10.40
2018-04-19T03:20:20.238Z,10.40
2018-04-19T03:22:50.449Z,10.30
2018-04-19T03:25:20.675Z,10.40
2018-04-19T03:27:51.206Z,10.40
2018-04-19T03:30:21.732Z,10.30
2018-04-19T03:32:52.598Z,10.30
2018-04-19T03:35:22.791Z,10.20
2018-04-19T03:37:52.912Z,10.20
2018-04-19T03:40:23.085Z,10.10
2018-04-19T03:42:53.357Z,10.10
2018-04-19T03:45:23.528Z,10.10
2018-04-19T03:47:53.651Z,10.10
2018-04-19T03:50:23.973Z,10.10
2018-04-19T03:52:54.156Z,10.10
2018-04-19T03:55:25.648Z,10.00
2018-04-19T03:57:56.949Z,10.00
2018-04-19T04:00:27.978Z,10.00
2018-04-19T04:02:59.323Z,10.00
2018-04-19T04:05:29.816Z,9.90
2018-04-19T04:08:01.588Z,9.90
2018-04-19T04:10:32.252Z,9.90
2018-04-19T04:13:05.302Z,9.90
2018-04-19T04:15:36.159Z,9.90
2018-04-19T04:20:19.128Z,9.80
2018-04-19T04:23:15.963Z,9.80
2018-04-19T04:25:46.932Z,9.80
2018-04-19T04:28:19.946Z,9.80
2018-04-19T04:30:50.040Z,9.80
2018-04-19T04:33:20.654Z,9.80
2018-04-19T04:35:50.963Z,9.80
2018-04-19T04:38:21.616Z,9.90
2018-04-19T04:40:51.824Z,9.90
2018-04-19T04:43:23.080Z,9.90
2018-04-19T04:45:53.187Z,10.00
2018-04-19T04:48:23.408Z,10.00
2018-04-19T04:50:53.735Z,9.90
2018-04-19T04:53:24.062Z,10.10
2018-04-19T04:55:54.285Z,10.10
2018-04-19T04:58:24.403Z,10.20
2018-04-19T05:00:54.529Z,10.30
2018-04-19T05:03:24.705Z,10.40
2018-04-19T05:05:55.884Z,10.50
2018-04-19T05:08:25.821Z,10.50
2018-04-19T05:10:56.085Z,10.60
2018-04-19T05:13:45.000Z,10.60
2018-04-19T05:16:15.456Z,10.80
2018-04-19T05:18:45.973Z,10.90
2018-04-19T05:21:17.201Z,11.10
2018-04-19T05:23:47.641Z,11.20
2018-04-19T05:26:17.835Z,11.40
2018-04-19T05:28:47.960Z,11.40
2018-04-19T05:31:18.108Z,11.70
2018-04-19T05:33:59.583Z,11.90
2018-04-19T05:36:29.705Z,12.20
2018-04-19T05:39:03.394Z,12.70
2018-04-19T05:41:33.491Z,13.40
2018-04-19T05:44:03.782Z,13.80
2018-04-19T05:46:36.241Z,14.10
2018-04-19T05:49:06.501Z,15.60
2018-04-19T05:51:36.216Z,13.10
2018-04-19T05:54:06.666Z,19.00
2018-04-19T05:56:36.759Z,21.90
2018-04-19T05:59:06.167Z,21.80
2018-04-19T06:01:36.289Z,24.30
2018-04-19T06:04:05.604Z,24.30
2018-04-19T06:06:34.984Z,24.90
2018-04-19T06:09:04.777Z,26.00
2018-04-19T06:11:42.075Z,27.20
2018-04-19T06:14:11.439Z,30.10
2018-04-19T06:16:40.820Z,29.40
2018-04-19T06:19:10.118Z,30.50
2018-04-19T06:21:40.259Z,32.30
2018-04-19T06:24:09.655Z,32.20
2018-04-19T06:26:39.728Z,34.00
2018-04-19T06:29:09.062Z,33.90
2018-04-19T06:31:38.370Z,34.80
2018-04-19T06:34:21.199Z,35.90
2018-04-19T06:36:50.541Z,35.80
2018-04-19T06:39:19.873Z,36.20
2018-04-19T06:41:49.207Z,36.70
2018-04-19T06:44:18.632Z,37.10
2018-04-19T06:46:48.054Z,37.10
2018-04-19T06:49:17.428Z,37.60
2018-04-19T06:51:47.493Z,38.10
2018-04-19T06:54:18.440Z,38.40
2018-04-19T06:56:48.052Z,38.40
2018-04-19T06:59:17.427Z,38.40
2018-04-19T07:02:09.389Z,38.80
2018-04-19T07:05:09.968Z,39.00
2018-04-19T07:07:39.598Z,39.10
2018-04-19T07:10:21.760Z,39.40
2018-04-19T07:12:51.085Z,40.00
2018-04-19T07:15:20.463Z,40.50
2018-04-19T07:23:49.440Z,39.00
2018-04-19T07:26:18.763Z,38.10
2018-04-19T07:28:48.084Z,37.40
2018-04-19T07:31:18.224Z,38.60
2018-04-19T07:33:47.640Z,38.60
2018-04-19T07:36:17.061Z,39.40
2018-04-19T07:38:48.773Z,40.30
2018-04-19T07:41:28.793Z,40.60
2018-04-19T07:43:58.433Z,40.60
2018-04-19T07:46:40.210Z,39.90
2018-04-19T07:49:09.757Z,39.90
2018-04-19T07:51:45.946Z,39.10
2018-04-19T07:54:19.652Z,38.30
2018-04-19T07:56:48.980Z,37.40
2018-04-19T07:59:18.352Z,36.80
2018-04-19T08:01:47.686Z,35.70
2018-04-19T08:04:17.027Z,34.70
2018-04-19T08:06:47.373Z,33.80
2018-04-19T08:09:16.740Z,33.70
2018-04-19T08:11:49.828Z,33.10
2018-04-19T08:14:19.939Z,32.60
2018-04-19T08:16:50.044Z,31.90
2018-04-19T08:19:19.800Z,32.10
2018-04-19T08:21:49.932Z,32.90
2018-04-19T08:24:19.655Z,33.30
2018-04-19T08:26:52.539Z,33.90
2018-04-19T08:29:21.879Z,34.50
2018-04-19T08:31:51.618Z,33.20
2018-04-19T08:34:21.724Z,34.70
2018-04-19T08:36:51.740Z,34.90
2018-04-19T08:39:21.456Z,35.20
2018-04-19T08:42:01.019Z,35.40
2018-04-19T08:44:31.100Z,34.70
2018-04-19T08:47:01.373Z,34.40
2018-04-19T08:49:30.700Z,34.00
2018-04-19T08:52:00.096Z,34.10
2018-04-19T08:54:33.285Z,34.60
2018-04-19T08:57:02.640Z,34.40
2018-04-19T08:59:32.741Z,35.40
2018-04-19T09:02:09.044Z,35.50
2018-04-19T09:04:38.412Z,35.90
2018-04-19T09:07:07.563Z,36.00
2018-04-19T09:09:38.212Z,35.90
2018-04-19T09:12:08.855Z,35.80
2018-04-19T09:14:39.984Z,35.60
2018-04-19T09:17:09.345Z,35.70
2018-04-19T09:19:38.714Z,36.10
2018-04-19T09:22:08.084Z,36.20
2018-04-19T09:24:39.428Z,36.30
2018-04-19T09:27:19.780Z,36.60
2018-04-19T09:29:49.188Z,39.10
2018-04-19T09:32:18.507Z,37.10
2018-04-19T09:39:44.010Z,36.90
2018-04-19T09:42:13.363Z,36.90
2018-04-19T09:44:42.720Z,36.80
2018-04-19T09:47:12.044Z,36.90
2018-04-19T09:49:41.480Z,37.20
2018-04-19T09:52:10.814Z,37.00
2018-04-19T09:54:40.894Z,36.90
2018-04-19T09:57:26.101Z,36.90
2018-04-19T09:59:56.225Z,36.60
2018-04-19T10:02:28.888Z,36.40
2018-04-19T10:05:02.366Z,36.40
2018-04-19T10:07:43.968Z,36.50
2018-04-19T10:10:14.485Z,36.80
2018-04-19T10:12:47.456Z,36.70
2018-04-19T10:15:18.542Z,36.50
2018-04-19T10:17:48.753Z,36.40
2018-04-19T10:20:18.858Z,34.80
2018-04-19T10:22:48.952Z,36.10
2018-04-19T10:25:34.326Z,34.10
2018-04-19T10:30:45.376Z,36.70
2018-04-19T10:33:15.472Z,35.80
2018-04-19T10:35:45.589Z,35.10
2018-04-19T10:38:30.097Z,34.90
2018-04-19T10:41:09.825Z,34.80
2018-04-19T10:43:39.934Z,35.10
2018-04-19T10:46:10.194Z,34.90
2018-04-19T10:48:59.626Z,34.90
2018-04-19T10:51:29.368Z,35.00
2018-04-19T10:53:59.102Z,35.10
2018-04-19T10:56:44.364Z,35.20
2018-04-19T10:59:25.508Z,35.40
2018-04-19T11:02:00.893Z,35.30
2018-04-19T11:04:34.476Z,35.20
2018-04-19T11:07:17.496Z,35.40
2018-04-19T11:09:49.468Z,35.60
2018-04-19T11:12:22.900Z,35.70
2018-04-19T11:14:52.999Z,35.50
2018-04-19T11:17:30.705Z,35.40
2018-04-19T11:20:00.842Z,35.20
2018-04-19T11:22:30.992Z,35.30
2018-04-19T11:25:14.961Z,35.40
2018-04-19T11:27:47.225Z,35.40
2018-04-19T11:30:17.340Z,35.40
2018-04-19T11:32:47.376Z,35.70
2018-04-19T11:38:19.890Z,36.00
2018-04-19T11:40:55.950Z,35.80
2018-04-19T11:43:26.435Z,36.00
2018-04-19T11:46:15.180Z,36.30
2018-04-19T11:48:59.794Z,36.50
2018-04-19T11:51:29.956Z,36.20
2018-04-19T11:54:09.920Z,36.20
2018-04-19T11:56:40.268Z,36.00
2018-04-19T11:59:10.297Z,35.80
2018-04-19T12:01:40.088Z,35.80
2018-04-19T12:04:09.820Z,36.00
2018-04-19T12:06:40.844Z,36.20
2018-04-19T12:09:16.388Z,36.20
2018-04-19T12:11:57.836Z,36.20
2018-04-19T12:14:33.612Z,36.40
2018-04-19T12:20:31.856Z,36.50
2018-04-19T12:23:13.706Z,36.40
2018-04-19T12:25:54.363Z,36.50
2018-04-19T12:28:29.978Z,36.90
2018-04-19T12:31:05.677Z,37.30
2018-04-19T12:33:41.455Z,37.40
2018-04-19T12:36:17.372Z,37.20
2018-04-19T12:38:53.083Z,37.30
2018-04-19T12:41:45.252Z,37.30
2018-04-19T12:44:39.064Z,37.20
2018-04-19T12:47:14.744Z,37.30
2018-04-19T12:50:02.428Z,36.80
2018-04-19T12:52:38.229Z,36.50
2018-04-19T12:55:20.884Z,36.70
2018-04-19T12:57:56.599Z,36.70
2018-04-19T13:00:32.257Z,36.60
2018-04-19T13:03:14.487Z,36.40
2018-04-19T13:05:50.417Z,36.40
2018-04-19T13:08:26.706Z,36.60
2018-04-19T13:11:02.048Z,36.50
2018-04-19T13:13:39.215Z,36.20
2018-04-19T13:16:08.891Z,36.10
2018-04-19T13:18:38.991Z,36.00
2018-04-19T13:21:08.755Z,35.80
2018-04-19T13:23:40.118Z,35.50
2018-04-19T13:26:09.867Z,35.40
2018-04-19T13:28:44.286Z,35.30
2018-04-19T13:31:14.122Z,35.30
2018-04-19T13:33:48.087Z,35.20
2018-04-19T13:36:20.596Z,35.00
2018-04-19T13:38:50.994Z,34.70
2018-04-19T13:41:22.432Z,34.50
2018-04-19T13:44:01.351Z,34.30
2018-04-19T13:46:31.621Z,34.00
2018-04-19T13:49:04.998Z,33.50
2018-04-19T13:51:35.252Z,33.30
2018-04-19T13:54:06.996Z,33.30
2018-04-19T13:56:45.543Z,32.60
2018-04-19T13:59:21.064Z,32.40
2018-04-19T14:01:50.835Z,32.00
2018-04-19T14:04:21.171Z,31.80
2018-04-19T14:07:21.886Z,31.70
2018-04-19T14:10:01.325Z,31.60
2018-04-19T14:12:31.611Z,31.50
2018-04-19T14:15:01.923Z,31.30
2018-04-19T14:17:31.827Z,31.20
2018-04-19T14:20:03.077Z,31.00
2018-04-19T14:22:40.485Z,30.70
2018-04-19T14:25:10.247Z,30.80
2018-04-19T14:27:42.358Z,30.80
2018-04-19T14:33:13.728Z,30.70
2018-04-19T14:35:57.208Z,30.70
2018-04-19T14:38:27.592Z,30.60
2018-04-19T14:40:57.376Z,30.40
2018-04-19T14:43:27.479Z,30.30
2018-04-19T14:45:57.591Z,30.20
2018-04-19T14:48:50.576Z,30.10
2018-04-19T14:51:21.590Z,30.00
2018-04-19T14:53:51.730Z,29.80
2018-04-19T14:56:21.812Z,29.60
2018-04-19T14:58:52.670Z,29.60
2018-04-19T15:01:22.812Z,29.50
2018-04-19T15:03:52.945Z,29.40
2018-04-19T15:06:23.766Z,29.40
2018-04-19T15:08:54.431Z,29.10
2018-04-19T15:11:24.585Z,29.10
2018-04-19T15:13:57.129Z,29.20
2018-04-19T15:16:30.102Z,29.10
2018-04-19T15:19:02.472Z,29.10
2018-04-19T15:21:32.908Z,29.30
2018-04-19T15:24:03.855Z,29.10
2018-04-19T15:26:42.198Z,29.10
2018-04-19T15:29:25.487Z,29.10
2018-04-19T15:32:04.363Z,29.00
2018-04-19T15:34:35.047Z,29.00
2018-04-19T15:37:05.275Z,29.00
2018-04-19T15:42:32.263Z,28.80
2018-04-19T15:45:02.588Z,28.60
2018-04-19T15:47:32.733Z,28.70
2018-04-19T15:50:02.609Z,28.70
2018-04-19T15:52:36.211Z,28.70
2018-04-19T15:55:17.108Z,28.60
2018-04-19T15:57:47.000Z,28.50
2018-04-19T16:00:19.366Z,28.40
2018-04-19T16:02:49.584Z,28.30
2018-04-19T16:05:19.907Z,28.30
2018-04-19T16:07:52.062Z,28.30
2018-04-19T16:13:24.420Z,28.20
2018-04-19T16:15:55.160Z,28.20
2018-04-19T16:18:25.486Z,28.00
2018-04-19T16:20:55.808Z,28.00
2018-04-19T16:23:28.790Z,28.00
2018-04-19T16:25:59.066Z,27.90
2018-04-19T16:28:29.288Z,27.90
2018-04-19T16:31:08.989Z,27.90
2018-04-19T16:33:42.334Z,27.90
2018-04-19T16:36:12.248Z,27.80
2018-04-19T16:38:49.410Z,27.70
2018-04-19T16:41:21.145Z,27.70
2018-04-19T16:43:51.463Z,27.80
2018-04-19T16:46:23.091Z,27.70
2018-04-19T16:49:13.068Z,27.60
2018-04-19T16:51:44.993Z,27.60
2018-04-19T16:54:16.473Z,27.50
2018-04-19T16:56:46.852Z,27.50
2018-04-19T16:59:18.232Z,27.50
2018-04-19T17:01:48.993Z,27.40
2018-04-19T17:04:26.259Z,27.40
2018-04-19T17:07:02.904Z,27.20
2018-04-19T17:09:43.403Z,27.20
2018-04-19T17:12:14.027Z,27.20
2018-04-19T17:14:45.934Z,27.20
2018-04-19T17:17:40.081Z,27.00
2018-04-19T17:20:10.263Z,27.00
2018-04-19T17:22:40.403Z,26.90
2018-04-19T17:25:31.303Z,26.90
2018-04-19T17:28:20.371Z,26.70
2018-04-19T17:30:50.503Z,26.60
2018-04-19T17:33:20.663Z,26.60
2018-04-19T17:35:50.766Z,26.50
2018-04-19T17:38:21.037Z,26.40
2018-04-19T17:40:51.161Z,26.30
2018-04-19T17:43:24.016Z,26.30
2018-04-19T17:46:28.270Z,26.10
2018-04-19T17:48:59.202Z,26.00
2018-04-19T17:51:29.487Z,25.90
2018-04-19T17:54:03.598Z,25.70
2018-04-19T17:56:34.553Z,25.60
2018-04-19T17:59:24.406Z,25.40
2018-04-19T18:01:59.031Z,25.10
2018-04-19T18:04:29.353Z,24.80
2018-04-19T18:06:59.654Z,24.60
2018-04-19T18:09:30.136Z,24.30
2018-04-19T18:12:00.568Z,24.00
2018-04-19T18:14:30.941Z,23.90
2018-04-19T18:17:02.437Z,23.70
2018-04-19T18:19:33.031Z,23.50
2018-04-19T18:24:57.323Z,23.00
2018-04-19T18:27:27.778Z,22.90
2018-04-19T18:29:58.407Z,22.70
2018-04-19T18:32:28.868Z,22.60
2018-04-19T18:34:59.899Z,22.50
2018-04-19T18:37:41.265Z,22.30
2018-04-19T18:40:11.707Z,22.20
2018-04-19T18:42:42.016Z,22.10
2018-04-19T18:45:15.259Z,21.90
2018-04-19T18:47:45.532Z,21.80
2018-04-19T18:50:17.708Z,21.70
2018-04-19T18:52:48.121Z,21.60
2018-04-19T18:55:19.428Z,21.40
2018-04-19T18:57:49.762Z,21.40
2018-04-19T19:00:20.843Z,21.30
2018-04-19T19:02:51.840Z,21.20
2018-04-19T19:05:22.188Z,21.10
2018-04-19T19:07:57.969Z,21.10
2018-04-19T19:10:28.340Z,21.00
2018-04-19T19:12:58.820Z,21.00
2018-04-19T19:15:37.225Z,20.90
2018-04-19T19:18:18.516Z,20.80
2018-04-19T19:20:49.733Z,20.80
2018-04-19T19:23:20.421Z,20.70
2018-04-19T19:25:52.692Z,20.70
2018-04-19T19:28:22.983Z,20.60
2018-04-19T19:30:53.010Z,20.50
2018-04-19T19:33:23.328Z,20.50
2018-04-19T19:35:53.917Z,20.40
2018-04-19T19:38:25.096Z,20.30
2018-04-19T19:40:55.456Z,20.30
2018-04-19T19:43:25.715Z,20.20
2018-04-19T19:45:56.379Z,20.20
2018-04-19T19:48:27.055Z,20.20
2018-04-19T19:51:02.714Z,20.10
2018-04-19T19:53:34.770Z,20.10
2018-04-19T19:56:06.160Z,20.00
2018-04-19T19:58:38.657Z,20.00
2018-04-19T20:01:09.184Z,20.00
2018-04-19T20:03:39.412Z,20.00
2018-04-19T20:06:09.722Z,20.00
2018-04-19T20:08:39.968Z,19.90
2018-04-19T20:11:10.240Z,19.90
2018-04-19T20:13:40.693Z,19.80
2018-04-19T20:16:10.928Z,19.70
2018-04-19T20:18:41.150Z,19.70
2018-04-19T20:21:11.831Z,19.70
2018-04-19T20:23:41.670Z,19.70
2018-04-19T20:26:11.893Z,19.50
2018-04-19T20:28:42.148Z,19.70
2018-04-19T20:31:12.669Z,19.60
2018-04-19T20:33:42.885Z,19.60
2018-04-19T20:36:13.116Z,19.60
2018-04-19T20:38:43.244Z,19.50
2018-04-19T20:41:13.779Z,19.50
2018-04-19T20:43:44.811Z,20.80
2018-04-19T20:46:15.506Z,19.30
2018-04-19T20:48:45.790Z,19.30
2018-04-19T20:51:17.507Z,19.20
2018-04-19T20:53:48.283Z,19.20
2018-04-19T20:56:19.461Z,19.20
2018-04-19T20:58:50.149Z,19.10
2018-04-19T21:01:23.344Z,19.00
2018-04-19T21:03:54.555Z,18.80
2018-04-19T21:06:26.537Z,18.70
2018-04-19T21:08:58.422Z,18.60
2018-04-19T21:11:29.883Z,18.40
2018-04-19T21:14:01.523Z,18.30
2018-04-19T21:16:33.072Z,18.10
2018-04-19T21:19:03.411Z,18.10
2018-04-19T21:21:33.783Z,17.90
2018-04-19T21:24:04.498Z,17.80
2018-04-19T21:26:35.106Z,17.50
2018-04-19T21:29:05.419Z,17.50
2018-04-19T21:31:35.845Z,17.40
2018-04-19T21:34:06.141Z,17.30
2018-04-19T21:36:36.693Z,19.50
2018-04-19T21:39:08.549Z,17.10
2018-04-19T21:41:39.869Z,16.90
2018-04-19T21:44:10.044Z,16.80
2018-04-19T21:46:42.066Z,16.60
2018-04-19T21:49:12.309Z,16.60
2018-04-19T21:51:42.876Z,16.50
2018-04-19T21:54:12.709Z,16.40
2018-04-19T21:56:43.188Z,14.90
2018-04-19T21:59:13.385Z,16.20
2018-04-19T22:01:44.385Z,16.10
2018-04-19T22:04:14.620Z,15.90
2018-04-19T22:06:44.896Z,15.90
2018-04-19T22:09:14.818Z,15.80
2018-04-19T22:11:45.219Z,15.70
2018-04-19T22:14:15.459Z,15.70
2018-04-19T22:16:45.637Z,15.70
2018-04-19T22:19:16.943Z,15.60
2018-04-19T22:21:47.462Z,15.60
2018-04-19T22:24:17.633Z,15.50
2018-04-19T22:26:47.912Z,15.50
2018-04-19T22:29:19.260Z,15.40
2018-04-19T22:31:50.251Z,15.40
2018-04-19T22:34:21.437Z,15.30
2018-04-19T22:36:51.964Z,15.20
2018-04-19T22:39:22.705Z,15.20
2018-04-19T22:41:53.001Z,15.10
2018-04-19T22:44:24.955Z,15.00
2018-04-19T22:46:56.314Z,15.00
2018-04-19T22:49:27.148Z,14.90
2018-04-19T22:51:58.328Z,14.80
2018-04-19T22:54:29.743Z,14.80
2018-04-19T22:57:00.651Z,14.70
2018-04-19T22:59:30.853Z,14.70
2018-04-19T23:02:02.338Z,14.50
2018-04-19T23:04:32.811Z,14.50
2018-04-19T23:07:02.968Z,14.40
2018-04-19T23:09:34.374Z,14.40
2018-04-19T23:12:04.911Z,14.30
2018-04-19T23:14:36.270Z,14.30
2018-04-19T23:17:07.921Z,14.20
2018-04-19T23:19:38.091Z,14.00
2018-04-19T23:22:07.957Z,14.10
2018-04-19T23:24:38.910Z,14.00
2018-04-19T23:27:10.294Z,14.00
2018-04-19T23:29:40.631Z,13.90
2018-04-19T23:32:12.709Z,13.90
2018-04-19T23:34:42.857Z,13.90
2018-04-19T23:37:13.074Z,13.70
2018-04-19T23:39:43.301Z,13.80
2018-04-19T23:42:13.686Z,13.80
2018-04-19T23:44:43.957Z,13.70
2018-04-19T23:47:14.169Z,13.70
2018-04-19T23:49:44.499Z,13.60
2018-04-19T23:52:14.522Z,13.50
2018-04-19T23:54:44.694Z,13.50
2018-04-19T23:57:15.921Z,13.40
2018-04-19T23:59:46.928Z,13.40
